sensor_id;sensor_type;location;lat;lon;timestamp;temperature;humidity
2577;DHT22;1298;51.252;6.802;2023-08-21T00:01:23;19.80;99.90
2577;DHT22;1298;51.252;6.802;2023-08-21T00:04:08;19.80;99.90
2577;DHT22;1298;51.252;6.802;2023-08-21T00:06:54;19.80;99.90
2577;DHT22;1298;51.252;6.802;2023-08-21T00:09:39;19.80;99.90
2577;DHT22;1298;51.252;6.802;2023-08-21T00:12:25;19.80;99.90
2577;DHT22;1298;51.252;6.802;2023-08-21T00:15:12;19.90;99.90
2577;DHT22;1298;51.252;6.802;2023-08-21T00:17:57;19.90;99.90
2577;DHT22;1298;51.252;6.802;2023-08-21T00:20:44;19.90;99.90
2577;DHT22;1298;51.252;6.802;2023-08-21T00:23:30;19.90;99.90
2577;DHT22;1298;51.252;6.802;2023-08-21T00:26:16;19.80;99.90
2577;DHT22;1298;51.252;6.802;2023-08-21T00:29:01;19.80;99.90
2577;DHT22;1298;51.252;6.802;2023-08-21T00:31:48;19.80;99.90
2577;DHT22;1298;51.252;6.802;2023-08-21T00:34:34;19.80;99.90
2577;DHT22;1298;51.252;6.802;2023-08-21T00:37:20;19.80;99.90
2577;DHT22;1298;51.252;6.802;2023-08-21T00:40:06;19.70;99.90
2577;DHT22;1298;51.252;6.802;2023-08-21T00:42:52;19.60;99.90
2577;DHT22;1298;51.252;6.802;2023-08-21T00:45:41;19.60;99.90
2577;DHT22;1298;51.252;6.802;2023-08-21T00:48:29;19.60;99.90
2577;DHT22;1298;51.252;6.802;2023-08-21T00:51:15;19.60;99.90
2577;DHT22;1298;51.252;6.802;2023-08-21T00:54:01;19.50;99.90
2577;DHT22;1298;51.252;6.802;2023-08-21T00:56:48;19.50;99.90
2577;DHT22;1298;51.252;6.802;2023-08-21T00:59:36;19.40;99.90
2577;DHT22;1298;51.252;6.802;2023-08-21T01:02:21;19.40;99.90
2577;DHT22;1298;51.252;6.802;2023-08-21T01:05:09;19.40;99.90
2577;DHT22;1298;51.252;6.802;2023-08-21T01:07:59;19.40;99.90
2577;DHT22;1298;51.252;6.802;2023-08-21T01:10:52;19.30;99.90
2577;DHT22;1298;51.252;6.802;2023-08-21T01:13:47;19.40;99.90
2577;DHT22;1298;51.252;6.802;2023-08-21T01:16:34;19.30;99.90
2577;DHT22;1298;51.252;6.802;2023-08-21T01:19:30;19.30;99.90
2577;DHT22;1298;51.252;6.802;2023-08-21T01:22:18;19.30;99.90
2577;DHT22;1298;51.252;6.802;2023-08-21T01:25:05;19.30;99.90
2577;DHT22;1298;51.252;6.802;2023-08-21T01:27:51;19.20;99.90
2577;DHT22;1298;51.252;6.802;2023-08-21T01:30:37;19.20;99.90
2577;DHT22;1298;51.252;6.802;2023-08-21T01:33:23;19.20;99.90
2577;DHT22;1298;51.252;6.802;2023-08-21T01:36:11;19.20;99.90
2577;DHT22;1298;51.252;6.802;2023-08-21T01:38:56;19.20;99.90
2577;DHT22;1298;51.252;6.802;2023-08-21T01:41:43;19.20;99.90
2577;DHT22;1298;51.252;6.802;2023-08-21T01:44:29;19.20;99.90
2577;DHT22;1298;51.252;6.802;2023-08-21T01:47:14;19.10;99.90
2577;DHT22;1298;51.252;6.802;2023-08-21T01:50:00;19.10;99.90
2577;DHT22;1298;51.252;6.802;2023-08-21T01:52:45;19.00;99.90
2577;DHT22;1298;51.252;6.802;2023-08-21T01:55:31;19.00;99.90
2577;DHT22;1298;51.252;6.802;2023-08-21T01:58:18;19.00;99.90
2577;DHT22;1298;51.252;6.802;2023-08-21T02:01:03;19.00;99.90
2577;DHT22;1298;51.252;6.802;2023-08-21T02:03:49;19.00;99.90
2577;DHT22;1298;51.252;6.802;2023-08-21T02:06:35;19.00;99.90
2577;DHT22;1298;51.252;6.802;2023-08-21T02:09:20;19.00;99.90
2577;DHT22;1298;51.252;6.802;2023-08-21T02:12:06;19.00;99.90
2577;DHT22;1298;51.252;6.802;2023-08-21T02:14:54;19.00;99.90
2577;DHT22;1298;51.252;6.802;2023-08-21T02:17:40;19.00;99.90
2577;DHT22;1298;51.252;6.802;2023-08-21T02:20:26;19.00;99.90
2577;DHT22;1298;51.252;6.802;2023-08-21T02:23:12;19.00;99.90
2577;DHT22;1298;51.252;6.802;2023-08-21T02:25:58;19.00;99.90
2577;DHT22;1298;51.252;6.802;2023-08-21T02:28:43;19.00;99.90
2577;DHT22;1298;51.252;6.802;2023-08-21T02:31:31;19.10;99.90
2577;DHT22;1298;51.252;6.802;2023-08-21T02:34:16;19.10;99.90
2577;DHT22;1298;51.252;6.802;2023-08-21T02:37:02;19.10;99.90
2577;DHT22;1298;51.252;6.802;2023-08-21T02:39:49;19.10;99.90
2577;DHT22;1298;51.252;6.802;2023-08-21T02:42:34;19.00;99.90
2577;DHT22;1298;51.252;6.802;2023-08-21T02:45:20;19.00;99.90
2577;DHT22;1298;51.252;6.802;2023-08-21T02:48:07;19.00;99.90
2577;DHT22;1298;51.252;6.802;2023-08-21T02:50:52;19.10;99.90
2577;DHT22;1298;51.252;6.802;2023-08-21T02:53:38;19.10;99.90
2577;DHT22;1298;51.252;6.802;2023-08-21T02:56:23;19.10;99.90
2577;DHT22;1298;51.252;6.802;2023-08-21T02:59:09;19.00;99.90
2577;DHT22;1298;51.252;6.802;2023-08-21T03:01:54;19.00;99.90
2577;DHT22;1298;51.252;6.802;2023-08-21T03:04:42;19.00;99.90
2577;DHT22;1298;51.252;6.802;2023-08-21T03:07:27;19.00;99.90
2577;DHT22;1298;51.252;6.802;2023-08-21T03:10:12;18.90;99.90
2577;DHT22;1298;51.252;6.802;2023-08-21T03:12:58;18.90;99.90
2577;DHT22;1298;51.252;6.802;2023-08-21T03:15:43;18.90;99.90
2577;DHT22;1298;51.252;6.802;2023-08-21T03:18:31;18.90;99.90
2577;DHT22;1298;51.252;6.802;2023-08-21T03:21:18;18.90;99.90
2577;DHT22;1298;51.252;6.802;2023-08-21T03:24:05;18.80;99.90
2577;DHT22;1298;51.252;6.802;2023-08-21T03:26:51;18.80;99.90
2577;DHT22;1298;51.252;6.802;2023-08-21T03:29:37;18.80;99.90
2577;DHT22;1298;51.252;6.802;2023-08-21T03:32:22;18.80;99.90
2577;DHT22;1298;51.252;6.802;2023-08-21T03:35:08;18.80;99.90
2577;DHT22;1298;51.252;6.802;2023-08-21T03:37:55;18.80;99.90
2577;DHT22;1298;51.252;6.802;2023-08-21T03:40:40;18.80;99.90
2577;DHT22;1298;51.252;6.802;2023-08-21T03:43:26;18.70;99.90
2577;DHT22;1298;51.252;6.802;2023-08-21T03:46:11;18.70;99.90
2577;DHT22;1298;51.252;6.802;2023-08-21T03:48:57;18.70;99.90
2577;DHT22;1298;51.252;6.802;2023-08-21T03:51:43;18.70;99.90
2577;DHT22;1298;51.252;6.802;2023-08-21T03:54:29;18.70;99.90
2577;DHT22;1298;51.252;6.802;2023-08-21T03:57:15;18.60;99.90
2577;DHT22;1298;51.252;6.802;2023-08-21T04:00:01;18.60;99.90
2577;DHT22;1298;51.252;6.802;2023-08-21T04:02:46;18.60;99.90
2577;DHT22;1298;51.252;6.802;2023-08-21T04:05:32;18.60;99.90
2577;DHT22;1298;51.252;6.802;2023-08-21T04:08:17;18.60;99.90
2577;DHT22;1298;51.252;6.802;2023-08-21T04:11:05;18.60;99.90
2577;DHT22;1298;51.252;6.802;2023-08-21T04:13:51;18.70;99.90
2577;DHT22;1298;51.252;6.802;2023-08-21T04:16:36;18.70;99.90
2577;DHT22;1298;51.252;6.802;2023-08-21T04:19:22;18.70;99.90
2577;DHT22;1298;51.252;6.802;2023-08-21T04:22:07;18.70;99.90
2577;DHT22;1298;51.252;6.802;2023-08-21T04:24:53;18.70;99.90
2577;DHT22;1298;51.252;6.802;2023-08-21T04:27:40;18.70;99.90
2577;DHT22;1298;51.252;6.802;2023-08-21T04:30:26;18.60;99.90
2577;DHT22;1298;51.252;6.802;2023-08-21T04:33:11;18.70;99.90
2577;DHT22;1298;51.252;6.802;2023-08-21T04:35:57;18.70;99.90
2577;DHT22;1298;51.252;6.802;2023-08-21T04:38:42;18.70;99.90
2577;DHT22;1298;51.252;6.802;2023-08-21T04:41:28;18.70;99.90
2577;DHT22;1298;51.252;6.802;2023-08-21T04:44:15;18.60;99.90
2577;DHT22;1298;51.252;6.802;2023-08-21T04:47:19;18.60;99.90
2577;DHT22;1298;51.252;6.802;2023-08-21T04:50:05;18.60;99.90
2577;DHT22;1298;51.252;6.802;2023-08-21T04:52:50;18.60;99.90
2577;DHT22;1298;51.252;6.802;2023-08-21T04:55:35;18.60;99.90
2577;DHT22;1298;51.252;6.802;2023-08-21T04:58:21;18.70;99.90
2577;DHT22;1298;51.252;6.802;2023-08-21T05:01:08;18.70;99.90
2577;DHT22;1298;51.252;6.802;2023-08-21T05:03:54;18.70;99.90
2577;DHT22;1298;51.252;6.802;2023-08-21T05:06:40;18.80;99.90
2577;DHT22;1298;51.252;6.802;2023-08-21T05:09:26;18.80;99.90
2577;DHT22;1298;51.252;6.802;2023-08-21T05:12:11;18.90;99.90
2577;DHT22;1298;51.252;6.802;2023-08-21T05:14:57;19.00;99.90
2577;DHT22;1298;51.252;6.802;2023-08-21T05:17:44;19.10;99.90
2577;DHT22;1298;51.252;6.802;2023-08-21T05:20:29;19.20;99.90
2577;DHT22;1298;51.252;6.802;2023-08-21T05:23:15;19.20;99.90
2577;DHT22;1298;51.252;6.802;2023-08-21T05:26:00;19.30;99.90
2577;DHT22;1298;51.252;6.802;2023-08-21T05:28:46;19.30;99.90
2577;DHT22;1298;51.252;6.802;2023-08-21T05:31:32;19.30;99.90
2577;DHT22;1298;51.252;6.802;2023-08-21T05:34:18;19.30;99.90
2577;DHT22;1298;51.252;6.802;2023-08-21T05:37:04;19.40;99.90
2577;DHT22;1298;51.252;6.802;2023-08-21T05:39:50;19.50;99.90
2577;DHT22;1298;51.252;6.802;2023-08-21T05:42:35;19.60;99.90
2577;DHT22;1298;51.252;6.802;2023-08-21T05:45:21;19.80;99.90
2577;DHT22;1298;51.252;6.802;2023-08-21T05:48:06;19.80;99.90
2577;DHT22;1298;51.252;6.802;2023-08-21T05:50:54;19.90;99.90
2577;DHT22;1298;51.252;6.802;2023-08-21T05:53:39;20.00;99.90
2577;DHT22;1298;51.252;6.802;2023-08-21T05:56:25;20.10;99.90
2577;DHT22;1298;51.252;6.802;2023-08-21T05:59:11;20.30;99.90
2577;DHT22;1298;51.252;6.802;2023-08-21T06:01:56;20.30;99.90
2577;DHT22;1298;51.252;6.802;2023-08-21T06:04:43;20.40;99.90
2577;DHT22;1298;51.252;6.802;2023-08-21T06:07:29;20.70;99.90
2577;DHT22;1298;51.252;6.802;2023-08-21T06:10:15;20.90;99.90
2577;DHT22;1298;51.252;6.802;2023-08-21T06:13:01;21.10;99.90
2577;DHT22;1298;51.252;6.802;2023-08-21T06:15:46;21.10;99.90
2577;DHT22;1298;51.252;6.802;2023-08-21T06:18:33;21.10;99.90
2577;DHT22;1298;51.252;6.802;2023-08-21T06:21:19;21.10;99.90
2577;DHT22;1298;51.252;6.802;2023-08-21T06:24:06;21.20;99.90
2577;DHT22;1298;51.252;6.802;2023-08-21T06:26:52;21.30;99.90
2577;DHT22;1298;51.252;6.802;2023-08-21T06:29:37;21.40;99.90
2577;DHT22;1298;51.252;6.802;2023-08-21T06:32:24;21.50;99.90
2577;DHT22;1298;51.252;6.802;2023-08-21T06:35:10;21.60;99.90
2577;DHT22;1298;51.252;6.802;2023-08-21T06:37:55;21.70;99.90
2577;DHT22;1298;51.252;6.802;2023-08-21T06:40:44;21.80;99.90
2577;DHT22;1298;51.252;6.802;2023-08-21T06:43:30;21.90;99.90
2577;DHT22;1298;51.252;6.802;2023-08-21T06:46:16;21.90;99.90
2577;DHT22;1298;51.252;6.802;2023-08-21T06:49:02;22.00;99.90
2577;DHT22;1298;51.252;6.802;2023-08-21T06:51:47;22.00;99.90
2577;DHT22;1298;51.252;6.802;2023-08-21T06:54:33;22.10;99.90
2577;DHT22;1298;51.252;6.802;2023-08-21T06:57:20;22.10;99.90
2577;DHT22;1298;51.252;6.802;2023-08-21T07:00:07;22.20;99.90
2577;DHT22;1298;51.252;6.802;2023-08-21T07:02:52;22.20;99.90
2577;DHT22;1298;51.252;6.802;2023-08-21T07:05:38;22.20;99.90
2577;DHT22;1298;51.252;6.802;2023-08-21T07:08:24;22.30;99.90
2577;DHT22;1298;51.252;6.802;2023-08-21T07:11:10;22.40;99.90
2577;DHT22;1298;51.252;6.802;2023-08-21T07:13:57;22.60;99.90
2577;DHT22;1298;51.252;6.802;2023-08-21T07:16:43;22.80;99.90
2577;DHT22;1298;51.252;6.802;2023-08-21T07:19:28;23.00;99.90
2577;DHT22;1298;51.252;6.802;2023-08-21T07:22:14;23.20;99.90
2577;DHT22;1298;51.252;6.802;2023-08-21T07:25:00;23.20;99.90
2577;DHT22;1298;51.252;6.802;2023-08-21T07:27:48;23.40;99.90
2577;DHT22;1298;51.252;6.802;2023-08-21T07:30:36;23.40;99.90
2577;DHT22;1298;51.252;6.802;2023-08-21T07:33:22;23.60;99.90
2577;DHT22;1298;51.252;6.802;2023-08-21T07:36:07;23.60;99.90
2577;DHT22;1298;51.252;6.802;2023-08-21T07:38:53;23.70;99.90
2577;DHT22;1298;51.252;6.802;2023-08-21T07:41:39;23.70;99.90
2577;DHT22;1298;51.252;6.802;2023-08-21T07:44:24;23.60;99.90
2577;DHT22;1298;51.252;6.802;2023-08-21T07:47:11;23.50;99.90
2577;DHT22;1298;51.252;6.802;2023-08-21T07:49:57;23.60;99.90
2577;DHT22;1298;51.252;6.802;2023-08-21T07:52:43;23.60;99.90
2577;DHT22;1298;51.252;6.802;2023-08-21T07:55:28;23.60;99.90
2577;DHT22;1298;51.252;6.802;2023-08-21T07:58:14;23.60;99.90
2577;DHT22;1298;51.252;6.802;2023-08-21T08:00:59;23.50;99.90
2577;DHT22;1298;51.252;6.802;2023-08-21T08:03:46;23.50;99.90
2577;DHT22;1298;51.252;6.802;2023-08-21T08:06:33;23.50;99.90
2577;DHT22;1298;51.252;6.802;2023-08-21T08:09:19;23.40;99.90
2577;DHT22;1298;51.252;6.802;2023-08-21T08:12:05;23.40;99.90
2577;DHT22;1298;51.252;6.802;2023-08-21T08:14:51;23.40;99.90
2577;DHT22;1298;51.252;6.802;2023-08-21T08:17:37;23.40;99.90
2577;DHT22;1298;51.252;6.802;2023-08-21T08:20:24;23.40;99.90
2577;DHT22;1298;51.252;6.802;2023-08-21T08:23:09;23.40;99.90
2577;DHT22;1298;51.252;6.802;2023-08-21T08:25:55;23.40;99.90
2577;DHT22;1298;51.252;6.802;2023-08-21T08:28:41;23.50;99.90
2577;DHT22;1298;51.252;6.802;2023-08-21T08:31:26;23.50;99.90
2577;DHT22;1298;51.252;6.802;2023-08-21T08:34:12;23.50;99.90
2577;DHT22;1298;51.252;6.802;2023-08-21T08:36:59;23.60;99.90
2577;DHT22;1298;51.252;6.802;2023-08-21T08:39:46;23.70;99.90
2577;DHT22;1298;51.252;6.802;2023-08-21T08:42:32;23.70;99.90
2577;DHT22;1298;51.252;6.802;2023-08-21T08:45:29;23.80;99.90
2577;DHT22;1298;51.252;6.802;2023-08-21T08:48:16;23.80;99.90
2577;DHT22;1298;51.252;6.802;2023-08-21T08:51:01;23.80;99.90
2577;DHT22;1298;51.252;6.802;2023-08-21T08:53:49;23.80;99.90
2577;DHT22;1298;51.252;6.802;2023-08-21T08:56:35;23.90;99.90
2577;DHT22;1298;51.252;6.802;2023-08-21T08:59:20;23.90;99.90
2577;DHT22;1298;51.252;6.802;2023-08-21T09:02:06;24.10;99.90
2577;DHT22;1298;51.252;6.802;2023-08-21T09:04:52;24.20;99.90
2577;DHT22;1298;51.252;6.802;2023-08-21T09:07:38;24.10;99.90
2577;DHT22;1298;51.252;6.802;2023-08-21T09:10:25;24.20;99.90
2577;DHT22;1298;51.252;6.802;2023-08-21T09:13:12;24.30;99.90
2577;DHT22;1298;51.252;6.802;2023-08-21T09:15:59;24.30;99.90
2577;DHT22;1298;51.252;6.802;2023-08-21T09:18:48;24.20;99.90
2577;DHT22;1298;51.252;6.802;2023-08-21T09:21:34;24.40;99.90
2577;DHT22;1298;51.252;6.802;2023-08-21T09:24:19;24.50;99.90
2577;DHT22;1298;51.252;6.802;2023-08-21T09:27:13;24.70;99.90
2577;DHT22;1298;51.252;6.802;2023-08-21T09:29:59;25.00;99.90
2577;DHT22;1298;51.252;6.802;2023-08-21T09:32:54;25.00;99.90
2577;DHT22;1298;51.252;6.802;2023-08-21T09:35:40;25.10;99.90
2577;DHT22;1298;51.252;6.802;2023-08-21T09:38:27;25.30;99.90
2577;DHT22;1298;51.252;6.802;2023-08-21T09:41:14;25.40;99.90
2577;DHT22;1298;51.252;6.802;2023-08-21T09:44:01;25.30;99.90
2577;DHT22;1298;51.252;6.802;2023-08-21T09:46:48;25.40;99.90
2577;DHT22;1298;51.252;6.802;2023-08-21T09:49:34;25.50;99.90
2577;DHT22;1298;51.252;6.802;2023-08-21T09:52:22;25.60;99.90
2577;DHT22;1298;51.252;6.802;2023-08-21T09:55:09;25.70;99.90
2577;DHT22;1298;51.252;6.802;2023-08-21T09:57:57;26.00;99.90
2577;DHT22;1298;51.252;6.802;2023-08-21T10:00:45;26.00;99.90
2577;DHT22;1298;51.252;6.802;2023-08-21T10:03:33;25.90;99.90
2577;DHT22;1298;51.252;6.802;2023-08-21T10:06:19;25.90;99.90
2577;DHT22;1298;51.252;6.802;2023-08-21T10:09:05;25.90;99.90
2577;DHT22;1298;51.252;6.802;2023-08-21T10:11:52;26.00;99.90
2577;DHT22;1298;51.252;6.802;2023-08-21T10:14:38;25.90;99.90
2577;DHT22;1298;51.252;6.802;2023-08-21T10:17:25;26.10;99.90
2577;DHT22;1298;51.252;6.802;2023-08-21T10:20:11;26.10;99.90
2577;DHT22;1298;51.252;6.802;2023-08-21T10:23:01;25.90;99.90
2577;DHT22;1298;51.252;6.802;2023-08-21T10:25:47;25.90;99.90
2577;DHT22;1298;51.252;6.802;2023-08-21T10:28:49;25.90;99.90
2577;DHT22;1298;51.252;6.802;2023-08-21T10:31:37;25.90;99.90
2577;DHT22;1298;51.252;6.802;2023-08-21T10:34:31;26.00;99.90
2577;DHT22;1298;51.252;6.802;2023-08-21T10:37:17;26.30;99.90
2577;DHT22;1298;51.252;6.802;2023-08-21T10:40:03;26.50;99.90
2577;DHT22;1298;51.252;6.802;2023-08-21T10:42:50;26.60;99.90
2577;DHT22;1298;51.252;6.802;2023-08-21T10:45:53;26.60;99.90
2577;DHT22;1298;51.252;6.802;2023-08-21T10:48:39;26.40;99.90
2577;DHT22;1298;51.252;6.802;2023-08-21T10:51:29;26.40;99.90
2577;DHT22;1298;51.252;6.802;2023-08-21T10:54:15;26.50;99.90
2577;DHT22;1298;51.252;6.802;2023-08-21T10:57:02;26.50;99.90
2577;DHT22;1298;51.252;6.802;2023-08-21T10:59:55;26.40;99.90
2577;DHT22;1298;51.252;6.802;2023-08-21T11:02:44;26.50;99.90
2577;DHT22;1298;51.252;6.802;2023-08-21T11:05:30;26.50;99.90
2577;DHT22;1298;51.252;6.802;2023-08-21T11:08:18;26.40;99.90
2577;DHT22;1298;51.252;6.802;2023-08-21T11:11:05;26.60;99.90
2577;DHT22;1298;51.252;6.802;2023-08-21T11:13:53;27.10;99.90
2577;DHT22;1298;51.252;6.802;2023-08-21T11:16:38;27.10;99.90
2577;DHT22;1298;51.252;6.802;2023-08-21T11:19:24;26.90;99.90
2577;DHT22;1298;51.252;6.802;2023-08-21T11:22:11;26.90;99.90
2577;DHT22;1298;51.252;6.802;2023-08-21T11:24:58;27.00;99.90
2577;DHT22;1298;51.252;6.802;2023-08-21T11:27:44;27.10;99.90
2577;DHT22;1298;51.252;6.802;2023-08-21T11:30:30;27.00;99.90
2577;DHT22;1298;51.252;6.802;2023-08-21T11:33:16;27.00;99.90
2577;DHT22;1298;51.252;6.802;2023-08-21T11:36:03;27.20;99.90
2577;DHT22;1298;51.252;6.802;2023-08-21T11:38:59;27.40;99.90
2577;DHT22;1298;51.252;6.802;2023-08-21T11:41:56;27.70;99.90
2577;DHT22;1298;51.252;6.802;2023-08-21T11:44:43;28.10;99.90
2577;DHT22;1298;51.252;6.802;2023-08-21T11:47:31;28.20;99.90
2577;DHT22;1298;51.252;6.802;2023-08-21T11:50:17;28.10;99.90
2577;DHT22;1298;51.252;6.802;2023-08-21T11:53:03;28.10;99.90
2577;DHT22;1298;51.252;6.802;2023-08-21T11:55:50;28.30;99.90
2577;DHT22;1298;51.252;6.802;2023-08-21T11:58:39;28.10;99.90
2577;DHT22;1298;51.252;6.802;2023-08-21T12:01:24;28.20;99.90
2577;DHT22;1298;51.252;6.802;2023-08-21T12:04:16;27.80;99.90
2577;DHT22;1298;51.252;6.802;2023-08-21T12:07:02;27.80;99.90
2577;DHT22;1298;51.252;6.802;2023-08-21T12:09:48;28.00;99.90
2577;DHT22;1298;51.252;6.802;2023-08-21T12:12:34;28.20;99.90
2577;DHT22;1298;51.252;6.802;2023-08-21T12:15:23;28.40;99.90
2577;DHT22;1298;51.252;6.802;2023-08-21T12:18:09;28.50;99.90
2577;DHT22;1298;51.252;6.802;2023-08-21T12:20:54;28.60;99.90
2577;DHT22;1298;51.252;6.802;2023-08-21T12:23:40;28.70;99.90
2577;DHT22;1298;51.252;6.802;2023-08-21T12:26:26;28.40;99.90
2577;DHT22;1298;51.252;6.802;2023-08-21T12:29:12;28.30;99.90
2577;DHT22;1298;51.252;6.802;2023-08-21T12:31:59;28.20;99.90
2577;DHT22;1298;51.252;6.802;2023-08-21T12:34:44;28.10;99.90
2577;DHT22;1298;51.252;6.802;2023-08-21T12:37:30;28.00;99.90
2577;DHT22;1298;51.252;6.802;2023-08-21T12:40:16;28.00;99.90
2577;DHT22;1298;51.252;6.802;2023-08-21T12:43:01;27.80;99.90
2577;DHT22;1298;51.252;6.802;2023-08-21T12:45:47;27.90;99.90
2577;DHT22;1298;51.252;6.802;2023-08-21T12:48:34;27.90;99.90
2577;DHT22;1298;51.252;6.802;2023-08-21T12:51:20;28.20;99.90
2577;DHT22;1298;51.252;6.802;2023-08-21T12:54:06;28.50;99.90
2577;DHT22;1298;51.252;6.802;2023-08-21T12:56:53;28.40;99.90
2577;DHT22;1298;51.252;6.802;2023-08-21T12:59:40;28.00;99.90
2577;DHT22;1298;51.252;6.802;2023-08-21T13:02:26;28.20;99.90
2577;DHT22;1298;51.252;6.802;2023-08-21T13:05:13;28.40;99.90
2577;DHT22;1298;51.252;6.802;2023-08-21T13:07:59;28.70;99.90
2577;DHT22;1298;51.252;6.802;2023-08-21T13:10:45;29.70;99.90
2577;DHT22;1298;51.252;6.802;2023-08-21T13:13:30;30.50;99.90
2577;DHT22;1298;51.252;6.802;2023-08-21T13:16:16;30.00;99.90
2577;DHT22;1298;51.252;6.802;2023-08-21T13:19:01;30.40;99.90
2577;DHT22;1298;51.252;6.802;2023-08-21T13:21:48;31.40;99.90
2577;DHT22;1298;51.252;6.802;2023-08-21T13:24:34;32.20;99.90
2577;DHT22;1298;51.252;6.802;2023-08-21T13:27:20;32.40;99.90
2577;DHT22;1298;51.252;6.802;2023-08-21T13:30:06;32.50;99.90
2577;DHT22;1298;51.252;6.802;2023-08-21T13:32:52;30.90;99.90
2577;DHT22;1298;51.252;6.802;2023-08-21T13:35:38;30.70;99.90
2577;DHT22;1298;51.252;6.802;2023-08-21T13:38:25;31.00;99.90
2577;DHT22;1298;51.252;6.802;2023-08-21T13:41:10;31.70;99.90
2577;DHT22;1298;51.252;6.802;2023-08-21T13:43:56;32.30;99.90
2577;DHT22;1298;51.252;6.802;2023-08-21T13:46:41;31.70;99.90
2577;DHT22;1298;51.252;6.802;2023-08-21T13:49:27;30.70;99.90
2577;DHT22;1298;51.252;6.802;2023-08-21T13:52:13;29.70;99.90
2577;DHT22;1298;51.252;6.802;2023-08-21T13:55:00;30.50;99.90
2577;DHT22;1298;51.252;6.802;2023-08-21T13:57:46;31.50;99.90
2577;DHT22;1298;51.252;6.802;2023-08-21T14:00:32;32.20;99.90
2577;DHT22;1298;51.252;6.802;2023-08-21T14:03:18;33.50;99.90
2577;DHT22;1298;51.252;6.802;2023-08-21T14:06:03;33.90;99.90
2577;DHT22;1298;51.252;6.802;2023-08-21T14:08:49;35.10;99.90
2577;DHT22;1298;51.252;6.802;2023-08-21T14:11:36;35.90;99.90
2577;DHT22;1298;51.252;6.802;2023-08-21T14:14:22;36.30;99.90
2577;DHT22;1298;51.252;6.802;2023-08-21T14:17:07;36.20;99.90
2577;DHT22;1298;51.252;6.802;2023-08-21T14:19:53;35.30;99.90
2577;DHT22;1298;51.252;6.802;2023-08-21T14:22:38;35.60;99.90
2577;DHT22;1298;51.252;6.802;2023-08-21T14:25:24;36.30;99.90
2577;DHT22;1298;51.252;6.802;2023-08-21T14:28:11;36.40;99.90
2577;DHT22;1298;51.252;6.802;2023-08-21T14:30:57;35.00;99.90
2577;DHT22;1298;51.252;6.802;2023-08-21T14:33:43;34.30;99.90
2577;DHT22;1298;51.252;6.802;2023-08-21T14:36:29;34.00;99.90
2577;DHT22;1298;51.252;6.802;2023-08-21T14:39:15;33.00;99.90
2577;DHT22;1298;51.252;6.802;2023-08-21T14:42:00;32.50;99.90
2577;DHT22;1298;51.252;6.802;2023-08-21T14:44:47;32.70;99.90
2577;DHT22;1298;51.252;6.802;2023-08-21T14:47:33;33.10;99.90
2577;DHT22;1298;51.252;6.802;2023-08-21T14:50:20;33.90;99.90
2577;DHT22;1298;51.252;6.802;2023-08-21T14:53:05;34.50;99.90
2577;DHT22;1298;51.252;6.802;2023-08-21T14:55:50;34.70;99.90
2577;DHT22;1298;51.252;6.802;2023-08-21T14:58:36;35.40;99.90
2577;DHT22;1298;51.252;6.802;2023-08-21T15:01:23;35.00;99.90
2577;DHT22;1298;51.252;6.802;2023-08-21T15:04:09;33.80;99.90
2577;DHT22;1298;51.252;6.802;2023-08-21T15:06:54;33.30;99.90
2577;DHT22;1298;51.252;6.802;2023-08-21T15:09:40;33.50;99.90
2577;DHT22;1298;51.252;6.802;2023-08-21T15:12:25;34.00;99.90
2577;DHT22;1298;51.252;6.802;2023-08-21T15:15:11;33.10;99.90
2577;DHT22;1298;51.252;6.802;2023-08-21T15:17:58;33.20;99.90
2577;DHT22;1298;51.252;6.802;2023-08-21T15:20:43;34.30;99.90
2577;DHT22;1298;51.252;6.802;2023-08-21T15:23:29;33.80;99.90
2577;DHT22;1298;51.252;6.802;2023-08-21T15:26:14;32.70;99.90
2577;DHT22;1298;51.252;6.802;2023-08-21T15:29:00;32.40;99.90
2577;DHT22;1298;51.252;6.802;2023-08-21T15:31:46;31.70;99.90
2577;DHT22;1298;51.252;6.802;2023-08-21T15:34:34;32.00;99.90
2577;DHT22;1298;51.252;6.802;2023-08-21T15:37:19;32.60;99.90
2577;DHT22;1298;51.252;6.802;2023-08-21T15:40:06;32.90;99.90
2577;DHT22;1298;51.252;6.802;2023-08-21T15:42:52;32.80;99.90
2577;DHT22;1298;51.252;6.802;2023-08-21T15:45:38;32.80;99.90
2577;DHT22;1298;51.252;6.802;2023-08-21T15:48:24;32.80;99.90
2577;DHT22;1298;51.252;6.802;2023-08-21T15:51:11;33.30;99.90
2577;DHT22;1298;51.252;6.802;2023-08-21T15:53:56;33.70;99.90
2577;DHT22;1298;51.252;6.802;2023-08-21T15:56:42;34.10;99.90
2577;DHT22;1298;51.252;6.802;2023-08-21T15:59:28;34.80;99.90
2577;DHT22;1298;51.252;6.802;2023-08-21T16:02:14;34.60;99.90
2577;DHT22;1298;51.252;6.802;2023-08-21T16:04:59;33.80;99.90
2577;DHT22;1298;51.252;6.802;2023-08-21T16:07:46;33.70;99.90
2577;DHT22;1298;51.252;6.802;2023-08-21T16:10:32;33.60;99.90
2577;DHT22;1298;51.252;6.802;2023-08-21T16:13:17;32.50;99.90
2577;DHT22;1298;51.252;6.802;2023-08-21T16:16:03;32.70;99.90
2577;DHT22;1298;51.252;6.802;2023-08-21T16:18:48;33.40;99.90
2577;DHT22;1298;51.252;6.802;2023-08-21T16:21:35;34.50;99.90
2577;DHT22;1298;51.252;6.802;2023-08-21T16:24:22;35.30;99.90
2577;DHT22;1298;51.252;6.802;2023-08-21T16:27:08;35.70;99.90
2577;DHT22;1298;51.252;6.802;2023-08-21T16:29:53;36.10;99.90
2577;DHT22;1298;51.252;6.802;2023-08-21T16:32:39;35.10;99.90
2577;DHT22;1298;51.252;6.802;2023-08-21T16:35:25;34.70;99.90
2577;DHT22;1298;51.252;6.802;2023-08-21T16:38:10;34.30;99.90
2577;DHT22;1298;51.252;6.802;2023-08-21T16:40:57;33.50;99.90
2577;DHT22;1298;51.252;6.802;2023-08-21T16:43:43;33.90;99.90
2577;DHT22;1298;51.252;6.802;2023-08-21T16:46:28;34.30;99.90
2577;DHT22;1298;51.252;6.802;2023-08-21T16:49:14;34.60;99.90
2577;DHT22;1298;51.252;6.802;2023-08-21T16:52:00;34.90;99.90
2577;DHT22;1298;51.252;6.802;2023-08-21T16:54:45;34.90;99.90
2577;DHT22;1298;51.252;6.802;2023-08-21T16:57:32;34.80;99.90
2577;DHT22;1298;51.252;6.802;2023-08-21T17:00:18;35.00;99.90
2577;DHT22;1298;51.252;6.802;2023-08-21T17:03:04;35.00;99.90
2577;DHT22;1298;51.252;6.802;2023-08-21T17:05:49;34.40;99.90
2577;DHT22;1298;51.252;6.802;2023-08-21T17:08:35;34.10;99.90
2577;DHT22;1298;51.252;6.802;2023-08-21T17:11:21;34.20;99.90
2577;DHT22;1298;51.252;6.802;2023-08-21T17:14:08;34.70;99.90
2577;DHT22;1298;51.252;6.802;2023-08-21T17:16:53;34.90;99.90
2577;DHT22;1298;51.252;6.802;2023-08-21T17:19:39;35.10;99.90
2577;DHT22;1298;51.252;6.802;2023-08-21T17:22:25;35.20;99.90
2577;DHT22;1298;51.252;6.802;2023-08-21T17:25:10;35.10;99.90
2577;DHT22;1298;51.252;6.802;2023-08-21T17:27:56;35.10;99.90
2577;DHT22;1298;51.252;6.802;2023-08-21T17:30:43;34.90;99.90
2577;DHT22;1298;51.252;6.802;2023-08-21T17:33:28;34.80;99.90
2577;DHT22;1298;51.252;6.802;2023-08-21T17:36:14;34.90;99.90
2577;DHT22;1298;51.252;6.802;2023-08-21T17:38:59;35.00;99.90
2577;DHT22;1298;51.252;6.802;2023-08-21T17:41:45;34.60;99.90
2577;DHT22;1298;51.252;6.802;2023-08-21T17:44:31;34.70;99.90
2577;DHT22;1298;51.252;6.802;2023-08-21T17:47:18;33.90;99.90
2577;DHT22;1298;51.252;6.802;2023-08-21T17:50:04;33.00;99.90
2577;DHT22;1298;51.252;6.802;2023-08-21T17:52:50;32.30;99.90
2577;DHT22;1298;51.252;6.802;2023-08-21T17:55:36;32.00;99.90
2577;DHT22;1298;51.252;6.802;2023-08-21T17:58:21;31.70;99.90
2577;DHT22;1298;51.252;6.802;2023-08-21T18:01:07;31.20;99.90
2577;DHT22;1298;51.252;6.802;2023-08-21T18:03:54;30.50;99.90
2577;DHT22;1298;51.252;6.802;2023-08-21T18:06:39;30.30;99.90